Terminal Aerodrome Forecast
Issued by NWS

Home | Current Version | Previous Version | Text Only | Print | Product List | Glossary On
Versions: 1 2 3 4 5 6 7 8 9 10 11 12 13 14 15 16 17 18 19 20 21
401
FTUS42 KKEY 191501 AAB
TAFMTH
TAF AMD
KMTH 191501Z 1915/2012 10011G20KT P6SM VCSH SCT022 SCT060
     FM191800 10011G22KT P6SM FEW025 SCT050
     FM200200 10012G23KT P6SM VCSH SCT020 OVC050
      TEMPO 2002/2006 5SM -SHRA BKN020 OVC040=

USA.gov is the U.S. government's official web portal to all federal, state and local government web resources and services.